Time;durP1;ratioP1;P1;durP2;ratioP2;P2;SDS_P1;SDS_P2;PMS_P1;PMS_P2;Temp;Humidity;BMP_temperature;BMP_pressure;BME280_temperature;BME280_humidity;BME280_pressure;Samples;Min_cycle;Max_cycle;Signal;HPM_P1;HPM_P2
2023/01/20 00:01:47;;;;;;;8.60;4.65;;;;;;;14.91;50.15;101126.84;5127535;27;20453;-36
2023/01/20 00:04:14;;;;;;;7.15;4.53;;;;;;;14.90;50.36;101133.16;5127633;27;20047;-37
2023/01/20 00:06:40;;;;;;;7.65;4.60;;;;;;;14.90;49.93;101129.66;5131296;27;20035;-35
2023/01/20 00:09:08;;;;;;;6.20;4.25;;;;;;;14.89;50.11;101142.16;5129526;27;20047;-35
2023/01/20 00:11:34;;;;;;;6.43;3.88;;;;;;;14.88;49.92;101134.28;5127736;27;20054;-36
2023/01/20 00:14:02;;;;;;;7.35;4.18;;;;;;;14.88;49.87;101134.28;5128539;27;20139;-36
2023/01/20 00:16:30;;;;;;;6.68;3.90;;;;;;;14.88;49.40;101132.44;5128289;27;20039;-35
2023/01/20 00:18:57;;;;;;;5.85;3.65;;;;;;;14.86;49.81;101134.38;5123718;27;20044;-35
2023/01/20 00:21:24;;;;;;;6.15;3.70;;;;;;;14.85;50.36;101129.19;5128256;27;20047;-36
2023/01/20 00:23:50;;;;;;;6.07;3.92;;;;;;;14.85;49.64;101132.69;5127292;27;20051;-35
2023/01/20 00:26:20;;;;;;;6.93;4.05;;;;;;;14.82;49.23;101131.13;5125632;27;20073;-36
2023/01/20 00:28:47;;;;;;;6.07;4.05;;;;;;;14.84;49.55;101132.84;5126003;27;20049;-35
2023/01/20 00:31:20;;;;;;;5.90;3.83;;;;;;;14.81;50.31;101137.44;5123582;27;20434;-35
2023/01/20 00:33:49;;;;;;;5.95;3.55;;;;;;;14.82;49.85;101138.28;5124505;27;20054;-35
2023/01/20 00:36:16;;;;;;;6.40;3.53;;;;;;;14.80;49.91;101135.75;5124875;27;20335;-39
2023/01/20 00:38:43;;;;;;;4.93;3.25;;;;;;;14.80;49.36;101138.41;5122065;27;20456;-36
2023/01/20 00:41:11;;;;;;;4.90;3.35;;;;;;;14.79;49.94;101131.38;5122503;27;20462;-36
2023/01/20 00:43:37;;;;;;;5.30;3.65;;;;;;;14.79;49.36;101138.53;5123953;27;20043;-36
2023/01/20 00:46:04;;;;;;;5.68;3.15;;;;;;;14.77;49.29;101136.00;5121908;27;20522;-36
2023/01/20 00:48:31;;;;;;;5.57;3.55;;;;;;;14.76;49.07;101144.97;5119182;27;20086;-35
2023/01/20 00:50:58;;;;;;;5.47;3.22;;;;;;;14.76;49.40;101146.78;5122476;27;20335;-35
2023/01/20 00:53:25;;;;;;;5.57;3.30;;;;;;;14.76;49.92;101142.31;5123491;27;20050;-36
2023/01/20 00:55:51;;;;;;;5.80;3.53;;;;;;;14.75;49.66;101151.28;5127229;27;20291;-35
2023/01/20 00:58:18;;;;;;;4.72;3.05;;;;;;;14.75;48.88;101153.97;5126519;27;20122;-35
2023/01/20 01:00:49;;;;;;;3.65;2.80;;;;;;;14.72;49.59;101151.53;5123460;27;20058;-35
2023/01/20 01:03:16;;;;;;;6.07;3.63;;;;;;;14.74;49.79;101159.41;5123329;27;20047;-35
2023/01/20 01:05:43;;;;;;;6.60;3.75;;;;;;;14.73;48.81;101163.03;5128511;27;20057;-36
2023/01/20 01:08:11;;;;;;;4.22;2.83;;;;;;;14.72;48.96;101166.69;5126201;27;20062;-35
2023/01/20 01:10:37;;;;;;;4.38;2.92;;;;;;;14.72;49.38;101164.88;5125602;27;20043;-36
2023/01/20 01:13:04;;;;;;;5.50;3.40;;;;;;;14.70;49.98;101164.13;5129940;27;20060;-35
2023/01/20 01:15:31;;;;;;;5.38;2.90;;;;;;;14.70;49.54;101158.78;5131458;27;20347;-35
2023/01/20 01:17:58;;;;;;;5.88;3.47;;;;;;;14.68;50.18;101171.44;5131934;27;20054;-35
2023/01/20 01:20:26;;;;;;;5.32;3.53;;;;;;;14.67;49.30;101159.03;5131422;27;20043;-36
2023/01/20 01:22:54;;;;;;;6.00;3.78;;;;;;;14.66;49.90;101165.34;5129622;27;20054;-37
2023/01/20 01:25:20;;;;;;;7.75;4.03;;;;;;;14.65;49.89;101168.16;5128124;27;20048;-35
2023/01/20 01:27:47;;;;;;;6.80;4.05;;;;;;;14.63;49.39;101178.94;5129142;27;20039;-35
2023/01/20 01:30:13;;;;;;;6.30;3.90;;;;;;;14.64;49.29;101177.13;5127849;27;20337;-35
2023/01/20 01:32:40;;;;;;;5.13;3.70;;;;;;;14.64;49.07;101183.31;5129643;27;20225;-36
2023/01/20 01:35:07;;;;;;;5.38;3.70;;;;;;;14.64;48.98;101182.47;5121788;27;20434;-35
2023/01/20 01:37:33;;;;;;;6.93;3.92;;;;;;;14.63;49.66;101188.75;5125245;27;20043;-36
2023/01/20 01:40:00;;;;;;;6.22;3.70;;;;;;;14.63;49.45;101183.41;5118375;27;20054;-36
2023/01/20 01:42:27;;;;;;;6.13;3.97;;;;;;;14.63;49.29;101181.59;5125743;27;20131;-35
2023/01/20 01:45:08;;;;;;;5.43;3.60;;;;;;;14.63;49.70;101183.41;5120108;27;20047;-35
2023/01/20 01:47:53;;;;;;;5.70;3.90;;;;;;;14.61;49.62;101183.56;5122247;27;20391;-35
2023/01/20 01:50:33;;;;;;;7.43;4.28;;;;;;;14.63;49.60;101180.75;5119116;27;20454;-36
2023/01/20 01:52:59;;;;;;;7.75;4.30;;;;;;;14.63;49.38;101183.41;5121111;27;20074;-35
2023/01/20 01:55:30;;;;;;;7.03;4.65;;;;;;;14.62;49.29;101187.91;5119716;27;20345;-36
2023/01/20 01:57:58;;;;;;;7.20;4.60;;;;;;;14.61;49.12;101188.88;5122641;27;20416;-35
2023/01/20 02:00:25;;;;;;;4.30;3.60;;;;;;;14.62;49.22;101195.91;5121631;27;20364;-35
2023/01/20 02:02:54;;;;;;;6.25;4.00;;;;;;;14.61;49.21;101188.03;5120912;27;20058;-35
2023/01/20 02:05:24;;;;;;;7.57;4.40;;;;;;;14.59;49.74;101190.81;5125804;27;20422;-35
2023/01/20 02:07:52;;;;;;;5.95;3.97;;;;;;;14.59;49.57;101185.47;5123609;27;20382;-35
2023/01/20 02:10:18;;;;;;;8.02;4.88;;;;;;;14.59;49.17;101185.47;5118889;27;20051;-35
2023/01/20 02:12:48;;;;;;;6.45;4.03;;;;;;;14.57;49.03;101187.44;5122361;27;20047;-34
2023/01/20 02:15:16;;;;;;;5.40;4.03;;;;;;;14.56;49.84;101185.75;5124905;27;20054;-35
2023/01/20 02:17:59;;;;;;;7.03;4.60;;;;;;;14.53;49.45;101188.66;5123980;27;20043;-35
2023/01/20 02:20:35;;;;;;;7.60;4.73;;;;;;;14.54;49.75;101185.00;5123016;27;20043;-35
2023/01/20 02:23:10;;;;;;;5.72;4.15;;;;;;;14.54;49.38;101179.69;5124011;27;20051;-36
2023/01/20 02:26:04;;;;;;;9.02;5.60;;;;;;;14.50;48.88;101180.88;5124793;28;20434;-35
2023/01/20 02:28:40;;;;;;;7.57;5.10;;;;;;;14.50;49.31;101176.41;5127990;28;20066;-35
2023/01/20 02:31:44;;;;;;;7.00;4.60;;;;;;;14.49;49.87;101181.88;5125430;28;20053;-34
2023/01/20 02:34:23;;;;;;;6.50;4.43;;;;;;;14.50;48.73;101180.88;5127292;28;20171;-37
2023/01/20 02:36:58;;;;;;;8.35;5.40;;;;;;;14.50;48.77;101183.56;5122055;28;20039;-34
2023/01/20 02:39:33;;;;;;;6.35;4.20;;;;;;;14.49;49.27;101188.03;5122292;27;20140;-34
2023/01/20 02:42:09;;;;;;;7.57;4.35;;;;;;;14.50;49.48;101183.56;5121498;28;20346;-36
2023/01/20 02:44:50;;;;;;;7.88;4.93;;;;;;;14.48;49.50;101191.66;5123085;28;20453;-35
2023/01/20 02:47:30;;;;;;;7.30;4.95;;;;;;;14.48;49.56;101185.47;5126532;27;20043;-35
2023/01/20 02:50:09;;;;;;;7.30;4.82;;;;;;;14.49;49.59;101192.53;5125332;27;20058;-35
2023/01/20 02:52:43;;;;;;;6.82;4.28;;;;;;;14.49;49.48;101187.22;5124009;27;20090;-34
2023/01/20 02:55:22;;;;;;;7.90;4.50;;;;;;;14.48;49.45;101186.31;5124839;27;21108;-36
2023/01/20 02:57:56;;;;;;;8.80;4.97;;;;;;;14.48;48.72;101188.16;5126373;27;20044;-35
2023/01/20 03:00:33;;;;;;;6.80;4.80;;;;;;;14.47;49.15;101178.44;5126350;27;20103;-35
2023/01/20 03:03:04;;;;;;;7.47;5.10;;;;;;;14.47;49.45;101173.09;5125278;27;20089;-35
2023/01/20 03:05:36;;;;;;;7.22;4.43;;;;;;;14.46;48.99;101182.91;5126795;27;20039;-35
2023/01/20 03:08:06;;;;;;;7.40;4.97;;;;;;;14.44;49.31;101184.88;5123004;27;20043;-36
2023/01/20 03:10:36;;;;;;;6.43;4.53;;;;;;;14.44;48.58;101181.38;5125878;27;20058;-35
2023/01/20 03:13:21;;;;;;;7.85;4.30;;;;;;;14.44;49.60;101184.88;5125825;27;20058;-35
2023/01/20 03:15:57;;;;;;;7.10;4.55;;;;;;;14.43;49.34;101184.97;5126431;27;20430;-35
2023/01/20 03:18:26;;;;;;;6.68;4.72;;;;;;;14.43;48.83;101192.97;5126769;27;20043;-35
2023/01/20 03:20:53;;;;;;;7.18;4.18;;;;;;;14.43;49.55;101187.66;5125391;27;20050;-35
2023/01/20 03:23:20;;;;;;;7.60;4.65;;;;;;;14.42;48.79;101193.97;5125333;27;20043;-35
2023/01/20 03:25:49;;;;;;;6.53;4.50;;;;;;;14.40;48.77;101196.75;5129990;27;20130;-35
2023/01/20 03:28:15;;;;;;;6.97;5.13;;;;;;;14.40;48.93;101191.41;5123646;27;20050;-35
2023/01/20 03:30:42;;;;;;;7.80;4.75;;;;;;;14.39;49.35;101192.41;5127592;27;20085;-35
2023/01/20 03:33:10;;;;;;;6.50;4.32;;;;;;;14.39;49.06;101194.19;5127092;27;20088;-35
2023/01/20 03:35:37;;;;;;;9.10;5.28;;;;;;;14.39;48.71;101191.53;5127157;27;20347;-36
2023/01/20 03:38:04;;;;;;;8.23;5.25;;;;;;;14.39;48.81;101191.53;5124206;27;20347;-35
2023/01/20 03:40:39;;;;;;;7.60;4.78;;;;;;;14.38;49.78;101188.00;5123418;27;20055;-35
2023/01/20 03:43:15;;;;;;;8.82;5.43;;;;;;;14.39;49.44;101194.19;5124521;27;20051;-35
2023/01/20 03:46:01;;;;;;;9.00;5.22;;;;;;;14.37;48.95;101188.16;5128007;27;20047;-35
2023/01/20 03:48:48;;;;;;;7.35;4.85;;;;;;;14.36;49.78;101186.47;5122613;27;20046;-37
2023/01/20 03:51:23;;;;;;;6.97;4.70;;;;;;;14.37;49.15;101185.47;5123488;27;20047;-37
2023/01/20 03:53:58;;;;;;;8.15;5.20;;;;;;;14.37;49.78;101182.81;5126795;27;20058;-35
2023/01/20 03:56:35;;;;;;;8.57;4.82;;;;;;;14.36;48.90;101186.47;5124952;27;20456;-36
2023/01/20 03:59:03;;;;;;;6.75;4.63;;;;;;;14.37;49.41;101189.00;5127474;27;20043;-35
2023/01/20 04:01:37;;;;;;;6.93;4.90;;;;;;;14.36;49.64;101189.13;5122878;27;20137;-35
2023/01/20 04:04:10;;;;;;;6.68;4.65;;;;;;;14.36;49.43;101189.97;5122527;27;20145;-35
2023/01/20 04:06:40;;;;;;;8.30;4.85;;;;;;;14.37;49.29;101193.47;5123335;27;20149;-35
2023/01/20 04:09:11;;;;;;;8.10;5.22;;;;;;;14.37;49.60;101190.81;5123477;27;20148;-35
2023/01/20 04:11:38;;;;;;;6.45;4.63;;;;;;;14.38;48.75;101197.84;5126218;27;20051;-35
2023/01/20 04:14:08;;;;;;;7.18;4.80;;;;;;;14.38;48.99;101200.50;5126212;27;20692;-37
2023/01/20 04:16:35;;;;;;;7.60;5.10;;;;;;;14.37;48.89;101204.16;5122928;27;20151;-38
2023/01/20 04:19:02;;;;;;;7.07;4.40;;;;;;;14.37;49.44;101201.47;5120328;27;20054;-38
2023/01/20 04:21:57;;;;;;;8.38;5.00;;;;;;;14.36;49.74;101202.47;5128246;27;20057;-35
2023/01/20 04:24:56;;;;;;;6.43;4.35;;;;;;;14.33;49.70;101201.72;5129615;27;20450;-37
2023/01/20 04:27:22;;;;;;;7.47;4.90;;;;;;;14.36;49.35;101207.78;5110808;27;20556;-35
2023/01/20 04:29:49;;;;;;;6.85;5.07;;;;;;;14.35;49.12;101212.25;5126761;27;20529;-36
2023/01/20 04:32:15;;;;;;;7.18;4.70;;;;;;;14.35;49.66;101211.41;5128288;27;20078;-37
2023/01/20 04:34:42;;;;;;;7.28;5.43;;;;;;;14.35;49.42;101209.59;5128533;27;20346;-36
2023/01/20 04:37:08;;;;;;;7.78;5.20;;;;;;;14.35;48.94;101220.25;5125309;27;20039;-39
2023/01/20 04:39:35;;;;;;;8.18;5.00;;;;;;;14.33;49.40;101220.38;5125586;27;20054;-36
2023/01/20 04:42:02;;;;;;;8.48;5.57;;;;;;;14.33;49.52;101219.53;5128089;27;20053;-36
2023/01/20 04:44:29;;;;;;;8.05;4.97;;;;;;;14.33;49.30;101220.38;5128248;27;20043;-36
2023/01/20 04:46:57;;;;;;;7.28;5.32;;;;;;;14.32;48.93;101224.03;5127993;27;20051;-36
2023/01/20 04:49:24;;;;;;;9.93;6.07;;;;;;;14.31;48.98;101226.78;5128621;27;20070;-37
2023/01/20 04:51:50;;;;;;;8.57;5.70;;;;;;;14.31;49.57;101222.34;5121803;27;20074;-36
2023/01/20 04:54:17;;;;;;;8.88;5.75;;;;;;;14.31;49.62;101226.78;5122998;27;20055;-34
2023/01/20 04:56:43;;;;;;;8.82;6.07;;;;;;;14.31;48.91;101227.66;5121384;27;20051;-35
2023/01/20 04:59:10;;;;;;;9.38;6.22;;;;;;;14.32;49.01;101233.84;5122604;27;20049;-34
2023/01/20 05:01:36;;;;;;;8.50;6.43;;;;;;;14.30;49.06;101225.94;5122230;27;20051;-37
2023/01/20 05:04:03;;;;;;;10.07;6.10;;;;;;;14.31;49.60;101227.66;5123311;27;20048;-36
2023/01/20 05:06:30;;;;;;;11.40;6.45;;;;;;;14.31;49.44;101232.13;5119694;27;20051;-38
2023/01/20 05:08:56;;;;;;;10.57;6.55;;;;;;;14.31;48.77;101240.13;5121817;27;20043;-36
2023/01/20 05:11:23;;;;;;;11.07;6.78;;;;;;;14.31;49.01;101242.78;5122894;27;20342;-35
2023/01/20 05:13:50;;;;;;;10.20;6.55;;;;;;;14.32;48.93;101247.19;5124158;27;20050;-34
2023/01/20 05:16:22;;;;;;;11.50;7.15;;;;;;;14.32;48.81;101247.19;5123005;27;20047;-35
2023/01/20 05:18:49;;;;;;;10.63;7.15;;;;;;;14.31;48.74;101249.00;5123097;27;20334;-36
2023/01/20 05:21:16;;;;;;;10.55;6.85;;;;;;;14.32;49.32;101249.84;5127510;27;20421;-35
2023/01/20 05:23:42;;;;;;;13.57;7.57;;;;;;;14.30;49.20;101252.59;5126894;27;20059;-37
2023/01/20 05:26:10;;;;;;;11.23;7.65;;;;;;;14.31;49.07;101248.13;5129377;27;20059;-36
2023/01/20 05:28:36;;;;;;;13.13;8.30;;;;;;;14.31;49.10;101243.66;5130319;27;20043;-34
2023/01/20 05:31:03;;;;;;;12.57;7.68;;;;;;;14.31;49.27;101249.00;5132214;27;20329;-35
2023/01/20 05:33:29;;;;;;;12.73;8.10;;;;;;;14.30;48.68;101241.09;5130057;27;20051;-37
2023/01/20 05:35:56;;;;;;;12.77;7.70;;;;;;;14.30;48.99;101244.59;5131367;27;20054;-34
2023/01/20 05:38:23;;;;;;;11.60;7.72;;;;;;;14.29;49.30;101253.59;5126518;27;20043;-37
2023/01/20 05:40:49;;;;;;;13.20;7.45;;;;;;;14.30;49.24;101259.75;5128788;27;20169;-35
2023/01/20 05:43:16;;;;;;;13.25;7.50;;;;;;;14.29;49.45;101261.59;5127801;27;20442;-35
2023/01/20 05:45:42;;;;;;;13.48;8.02;;;;;;;14.28;49.71;101259.91;5128256;27;20066;-36
2023/01/20 05:48:09;;;;;;;13.60;8.25;;;;;;;14.27;49.35;101257.31;5125726;27;20047;-35
2023/01/20 05:50:35;;;;;;;11.23;7.35;;;;;;;14.27;49.31;101252.88;5127199;27;20055;-35
2023/01/20 05:53:02;;;;;;;12.18;7.90;;;;;;;14.26;49.35;101252.97;5118468;27;20065;-35
2023/01/20 05:55:28;;;;;;;14.32;8.80;;;;;;;14.25;49.38;101252.13;5122101;27;20055;-38
2023/01/20 05:57:55;;;;;;;14.55;9.05;;;;;;;14.25;48.83;101251.28;5121234;27;20404;-35
2023/01/20 06:00:22;;;;;;;16.10;9.95;;;;;;;14.24;49.30;101255.75;5123079;27;20047;-35
2023/01/20 06:02:48;;;;;;;13.65;9.10;;;;;;;14.23;49.48;101256.75;5119282;27;20048;-36
2023/01/20 06:05:15;;;;;;;11.90;8.18;;;;;;;14.23;48.92;101254.06;5120851;27;20466;-35
2023/01/20 06:07:42;;;;;;;14.57;9.52;;;;;;;14.23;49.37;101254.06;5117443;27;20401;-37
2023/01/20 06:10:09;;;;;;;13.60;9.27;;;;;;;14.23;48.67;101254.06;5120677;27;20039;-36
2023/01/20 06:12:36;;;;;;;14.55;8.48;;;;;;;14.23;49.01;101256.75;5118629;27;20057;-37
2023/01/20 06:15:03;;;;;;;13.43;9.15;;;;;;;14.24;48.90;101252.25;5120352;27;20075;-37
2023/01/20 06:17:30;;;;;;;15.80;9.27;;;;;;;14.24;48.94;101252.25;5120896;27;20047;-36
2023/01/20 06:19:57;;;;;;;16.45;9.32;;;;;;;14.24;48.85;101252.25;5122279;27;20379;-39
2023/01/20 06:22:24;;;;;;;17.60;9.82;;;;;;;14.24;49.06;101253.09;5126400;27;20393;-35
2023/01/20 06:24:51;;;;;;;15.27;9.32;;;;;;;14.23;48.70;101256.75;5121720;27;20054;-35
2023/01/20 06:27:18;;;;;;;16.17;10.15;;;;;;;14.23;48.93;101251.41;5125454;27;20039;-36
2023/01/20 06:29:45;;;;;;;18.05;10.43;;;;;;;14.24;48.92;101249.59;5122187;28;20051;-36
2023/01/20 06:32:11;;;;;;;16.85;9.98;;;;;;;14.22;48.86;101252.34;5122293;28;20120;-36
2023/01/20 06:34:38;;;;;;;15.07;9.32;;;;;;;14.23;48.84;101253.19;5123128;28;20342;-35
2023/01/20 06:37:04;;;;;;;18.00;10.65;;;;;;;14.23;49.33;101255.88;5122956;28;20055;-36
2023/01/20 06:39:31;;;;;;;16.42;10.43;;;;;;;14.23;48.54;101256.75;5119868;28;20716;-34
2023/01/20 06:41:58;;;;;;;16.65;9.65;;;;;;;14.23;48.90;101256.75;5121355;28;20066;-35
2023/01/20 06:44:26;;;;;;;16.85;10.30;;;;;;;14.23;49.27;101253.19;5123267;27;20073;-36
2023/01/20 06:46:53;;;;;;;14.45;9.73;;;;;;;14.23;49.40;101261.19;5124000;27;20063;-36
2023/01/20 06:49:19;;;;;;;16.58;10.65;;;;;;;14.22;48.88;101254.16;5122457;27;20058;-35
2023/01/20 06:51:47;;;;;;;17.63;10.55;;;;;;;14.23;48.97;101261.19;5123277;28;20464;-35
2023/01/20 06:54:14;;;;;;;17.58;10.63;;;;;;;14.22;49.14;101263.03;5123503;27;20074;-35
2023/01/20 06:56:41;;;;;;;17.67;10.18;;;;;;;14.22;48.76;101262.16;5120436;27;20047;-36
2023/01/20 06:59:09;;;;;;;19.13;10.90;;;;;;;14.22;48.94;101265.69;5116760;28;20055;-35
2023/01/20 07:01:36;;;;;;;21.27;11.60;;;;;;;14.21;49.47;101263.16;5120531;28;20051;-35
2023/01/20 07:04:02;;;;;;;18.08;10.50;;;;;;;14.22;49.44;101273.69;5121477;27;20082;-37
2023/01/20 07:06:31;;;;;;;19.20;11.40;;;;;;;14.20;49.42;101261.47;5124334;27;20047;-36
2023/01/20 07:08:59;;;;;;;19.40;11.30;;;;;;;14.20;48.66;101266.78;5121971;27;20055;-36
2023/01/20 07:11:27;;;;;;;18.70;11.18;;;;;;;14.21;48.93;101273.81;5120833;28;20089;-36
2023/01/20 07:13:54;;;;;;;16.15;10.13;;;;;;;14.19;49.16;101281.06;5121753;28;20039;-36
2023/01/20 07:16:20;;;;;;;19.50;11.32;;;;;;;14.18;49.32;101282.88;5122189;28;20048;-36
2023/01/20 07:18:48;;;;;;;18.60;11.55;;;;;;;14.18;48.74;101288.22;5121582;28;20043;-36
2023/01/20 07:21:15;;;;;;;18.95;11.25;;;;;;;14.17;49.26;101281.19;5122011;27;20053;-37
2023/01/20 07:23:42;;;;;;;21.10;12.00;;;;;;;14.17;49.48;101273.19;5121008;28;20434;-37
2023/01/20 07:26:12;;;;;;;20.95;12.00;;;;;;;14.16;48.69;101278.66;5120023;27;20051;-36
2023/01/20 07:28:39;;;;;;;19.20;11.23;;;;;;;14.17;49.22;101280.34;5120412;28;20051;-36
2023/01/20 07:31:13;;;;;;;20.38;12.65;;;;;;;14.16;48.68;101278.66;5120203;27;20043;-37
2023/01/20 07:33:40;;;;;;;19.05;10.90;;;;;;;14.16;49.34;101281.31;5123113;27;20142;-37
2023/01/20 07:36:10;;;;;;;19.63;11.85;;;;;;;14.15;48.73;101285.81;5127855;27;20051;-36
2023/01/20 07:38:37;;;;;;;18.52;10.90;;;;;;;14.15;49.21;101293.81;5126361;27;20326;-36
2023/01/20 07:41:07;;;;;;;18.60;11.52;;;;;;;14.15;49.34;101307.13;5126052;27;20387;-36
2023/01/20 07:43:33;;;;;;;21.05;11.77;;;;;;;14.15;49.48;101295.59;5126571;27;20135;-37
2023/01/20 07:46:02;;;;;;;20.83;11.95;;;;;;;14.13;49.31;101293.06;5127253;27;20448;-36
2023/01/20 07:48:30;;;;;;;19.92;12.00;;;;;;;14.12;49.19;101299.38;5125496;27;20047;-36
2023/01/20 07:51:04;;;;;;;18.05;11.73;;;;;;;14.13;48.72;101302.88;5127780;27;20466;-36
2023/01/20 07:53:32;;;;;;;17.92;11.85;;;;;;;14.13;48.88;101305.53;5123200;27;20054;-36
2023/01/20 07:56:00;;;;;;;19.10;12.65;;;;;;;14.13;48.95;101314.38;5125733;27;20442;-37
2023/01/20 07:58:28;;;;;;;18.90;11.68;;;;;;;14.13;49.15;101306.38;5130969;27;20353;-34
2023/01/20 08:00:55;;;;;;;18.88;11.68;;;;;;;14.12;49.15;101307.34;5126953;27;20054;-35
2023/01/20 08:03:22;;;;;;;19.45;11.55;;;;;;;14.12;49.44;101309.19;5128367;27;20101;-34
2023/01/20 08:05:51;;;;;;;19.23;12.25;;;;;;;14.11;49.26;101310.13;5127059;27;20054;-34
2023/01/20 08:08:17;;;;;;;18.35;11.25;;;;;;;14.10;48.97;101314.59;5126667;27;20043;-35
2023/01/20 08:10:46;;;;;;;20.90;11.43;;;;;;;14.09;48.99;101312.91;5127820;27;20053;-35
2023/01/20 08:13:13;;;;;;;17.40;11.40;;;;;;;14.09;49.19;101312.91;5128208;27;20047;-35
2023/01/20 08:15:39;;;;;;;18.00;11.48;;;;;;;14.08;48.97;101317.41;5129551;27;20047;-35
2023/01/20 08:18:06;;;;;;;18.92;11.70;;;;;;;14.08;48.68;101311.22;5125032;27;20054;-35
2023/01/20 08:20:32;;;;;;;16.58;11.05;;;;;;;14.07;48.92;101315.72;5123938;27;20079;-37
2023/01/20 08:22:59;;;;;;;18.23;11.35;;;;;;;14.06;48.71;101321.97;5124822;27;20101;-35
2023/01/20 08:25:25;;;;;;;17.17;11.32;;;;;;;14.06;48.77;101326.47;5119883;27;20166;-35
2023/01/20 08:27:52;;;;;;;18.23;11.77;;;;;;;14.06;48.41;101327.31;5123199;27;20047;-35
2023/01/20 08:30:18;;;;;;;20.17;11.70;;;;;;;14.06;49.19;101329.13;5126552;27;20047;-36
2023/01/20 08:32:45;;;;;;;18.83;11.95;;;;;;;14.06;48.71;101340.63;5120926;27;20055;-36
2023/01/20 08:35:11;;;;;;;18.10;10.57;;;;;;;14.05;48.68;101344.28;5126532;27;20050;-36
2023/01/20 08:37:38;;;;;;;18.20;12.05;;;;;;;14.05;49.11;101344.28;5126543;27;20088;-35
2023/01/20 08:40:09;;;;;;;17.90;11.15;;;;;;;14.05;49.40;101346.94;5121337;27;20076;-35
2023/01/20 08:42:37;;;;;;;18.98;11.50;;;;;;;14.05;49.07;101354.09;5118543;27;20150;-34
2023/01/20 08:45:05;;;;;;;16.65;10.68;;;;;;;14.04;48.67;101360.41;5121443;27;20066;-34
2023/01/20 08:47:44;;;;;;;19.17;11.32;;;;;;;14.03;48.64;101351.56;5123298;27;20067;-33
2023/01/20 08:50:13;;;;;;;16.52;11.07;;;;;;;14.04;48.69;101369.25;5125541;27;20044;-34
2023/01/20 08:52:41;;;;;;;15.95;10.57;;;;;;;14.05;48.85;101365.59;5122716;27;20128;-35
2023/01/20 08:55:08;;;;;;;17.20;11.05;;;;;;;14.04;49.03;101363.91;5123880;27;20051;-34
2023/01/20 08:57:35;;;;;;;17.70;11.45;;;;;;;14.05;48.98;101364.75;5120671;27;20058;-34
2023/01/20 09:00:06;;;;;;;16.85;10.88;;;;;;;14.04;49.07;101361.25;5124621;27;20079;-36
2023/01/20 09:02:33;;;;;;;16.35;10.55;;;;;;;14.05;48.94;101370.09;5125992;27;20133;-35
2023/01/20 09:04:59;;;;;;;16.27;10.63;;;;;;;14.05;48.58;101370.94;5125854;27;20319;-38
2023/01/20 09:07:26;;;;;;;16.48;10.20;;;;;;;14.06;49.02;101371.78;5129161;27;20051;-39
2023/01/20 09:09:52;;;;;;;16.05;10.52;;;;;;;14.06;49.11;101377.09;5127728;27;20047;-36
2023/01/20 09:12:19;;;;;;;14.75;10.10;;;;;;;14.05;48.94;101375.41;5130236;27;20058;-36
2023/01/20 09:14:46;;;;;;;15.82;10.02;;;;;;;14.05;49.13;101380.75;5127162;27;20329;-35
2023/01/20 09:17:13;;;;;;;17.38;9.98;;;;;;;14.04;49.21;101379.91;5128733;27;20044;-35
2023/01/20 09:19:40;;;;;;;16.52;10.32;;;;;;;14.05;49.39;101386.06;5129366;27;20042;-36
2023/01/20 09:22:06;;;;;;;16.77;10.45;;;;;;;14.05;49.26;101383.41;5125709;27;20081;-35
2023/01/20 09:24:33;;;;;;;13.43;9.48;;;;;;;14.05;48.63;101386.91;5128283;27;20043;-36
2023/01/20 09:26:59;;;;;;;13.70;9.10;;;;;;;14.05;49.24;101386.91;5124538;27;20362;-35
2023/01/20 09:29:26;;;;;;;14.52;9.50;;;;;;;14.07;48.77;101389.50;5128260;27;20042;-35
2023/01/20 09:31:57;;;;;;;13.50;8.95;;;;;;;14.07;48.96;101398.34;5128025;27;20477;-39
2023/01/20 09:34:28;;;;;;;14.45;9.70;;;;;;;14.08;48.80;101397.38;5128613;27;20126;-35
2023/01/20 09:36:57;;;;;;;13.68;9.57;;;;;;;14.10;48.83;101401.72;5128900;27;20057;-35
2023/01/20 09:45:23;;;;;;;;;;;;;;;14.11;49.25;101409.63;5124219;27;20426;-35
2023/01/20 09:47:50;;;;;;;13.02;8.95;;;;;;;14.14;48.49;101409.38;5127195;27;20313;-35
2023/01/20 09:53:53;;;;;;;13.30;9.15;;;;;;;14.13;48.51;101413.00;5120493;27;21144;-35
2023/01/20 09:56:23;;;;;;;11.85;8.05;;;;;;;14.14;48.54;101412.03;5119311;27;20047;-36
2023/01/20 09:59:20;;;;;;;15.38;9.07;;;;;;;14.14;48.88;101409.38;5122223;27;20036;-36
2023/01/20 10:01:56;;;;;;;12.00;8.55;;;;;;;14.16;48.43;101409.28;5127041;27;20043;-35
2023/01/20 10:04:40;;;;;;;13.13;8.32;;;;;;;14.15;48.79;101413.75;5123442;27;20282;-36
2023/01/20 10:07:15;;;;;;;13.27;8.52;;;;;;;14.15;48.87;101411.09;5129138;27;20049;-36
2023/01/20 10:09:45;;;;;;;13.45;8.25;;;;;;;14.15;48.74;101408.44;5122284;27;20041;-36
2023/01/20 10:12:17;;;;;;;10.70;7.00;;;;;;;14.16;48.35;101411.94;5125866;27;20046;-36
2023/01/20 10:14:49;;;;;;;11.48;7.45;;;;;;;14.16;48.98;101417.28;5124400;27;20456;-36
2023/01/20 10:17:26;;;;;;;13.98;8.75;;;;;;;14.15;48.46;101421.75;5124230;27;20058;-36
2023/01/20 10:20:14;;;;;;;11.45;7.93;;;;;;;14.15;48.73;101418.22;5128198;27;20051;-36
2023/01/20 10:22:50;;;;;;;10.80;7.05;;;;;;;14.16;49.01;101414.59;5123425;27;20131;-36
2023/01/20 10:25:23;;;;;;;9.98;7.07;;;;;;;14.15;48.54;101420.88;5126515;27;20067;-35
2023/01/20 10:28:13;;;;;;;10.30;7.10;;;;;;;14.12;48.90;101421.97;5124435;28;20395;-35
2023/01/20 10:30:39;;;;;;;10.77;7.38;;;;;;;14.14;48.72;101406.72;5126742;28;20043;-35
2023/01/20 10:33:06;;;;;;;10.57;7.40;;;;;;;14.13;48.68;101410.34;5113466;28;20055;-36
2023/01/20 10:35:38;;;;;;;12.00;7.78;;;;;;;14.13;49.07;101414.81;5125110;28;20346;-35
2023/01/20 10:38:07;;;;;;;11.57;7.45;;;;;;;14.12;48.41;101408.66;5126083;27;20338;-36
2023/01/20 10:40:39;;;;;;;10.52;7.00;;;;;;;14.12;49.23;101411.31;5124014;27;20423;-36
2023/01/20 10:43:11;;;;;;;9.35;7.05;;;;;;;14.11;49.03;101404.28;5125217;27;20048;-36
2023/01/20 10:45:55;;;;;;;9.43;7.32;;;;;;;14.12;48.95;101403.31;5120816;28;20050;-36
2023/01/20 10:49:00;;;;;;;10.85;6.85;;;;;;;14.10;48.78;101407.91;5124291;28;20470;-36
2023/01/20 10:51:30;;;;;;;10.07;6.63;;;;;;;14.13;48.79;101414.81;5120978;28;20043;-35
2023/01/20 10:54:33;;;;;;;9.85;6.43;;;;;;;14.11;48.44;101414.97;5123619;28;20056;-36
2023/01/20 10:57:03;;;;;;;9.45;6.75;;;;;;;14.14;48.64;101420.03;5124003;28;20051;-37
2023/01/20 10:59:44;;;;;;;11.10;6.63;;;;;;;14.13;49.29;101429.00;5127669;28;20312;-36
2023/01/20 11:02:19;;;;;;;11.68;6.80;;;;;;;14.15;49.35;101435.09;5127821;27;20445;-36
2023/01/20 11:04:53;;;;;;;10.38;6.55;;;;;;;14.15;49.64;101439.53;5118792;28;20057;-36
2023/01/20 11:07:20;;;;;;;8.88;6.10;;;;;;;14.16;49.66;101436.78;5122963;27;20054;-36
2023/01/20 11:09:47;;;;;;;13.55;7.35;;;;;;;14.17;49.52;101441.13;5126445;27;20045;-36
2023/01/20 11:12:18;;;;;;;9.30;6.25;;;;;;;14.18;49.17;101445.50;5123422;27;20104;-37
2023/01/20 11:14:47;;;;;;;10.45;6.82;;;;;;;14.20;49.27;101448.06;5127664;27;20078;-36
2023/01/20 11:17:16;;;;;;;13.45;7.28;;;;;;;14.21;49.53;101455.09;5127225;27;20047;-36
2023/01/20 11:19:49;;;;;;;12.57;6.20;;;;;;;14.22;49.95;101456.78;5128248;27;20039;-35
2023/01/20 11:22:23;;;;;;;12.23;7.70;;;;;;;14.22;49.54;101460.31;5126851;27;20050;-36
2023/01/20 11:24:54;;;;;;;11.30;6.38;;;;;;;14.23;49.72;101459.38;5130885;27;20058;-38
2023/01/20 11:27:26;;;;;;;13.15;7.40;;;;;;;14.25;49.88;101443.25;5128556;27;20482;-36
2023/01/20 11:30:01;;;;;;;12.57;7.68;;;;;;;14.24;50.24;101438.88;5128063;27;20039;-35
2023/01/20 11:32:34;;;;;;;13.98;7.75;;;;;;;14.25;49.88;101452.09;5131163;27;20047;-38
2023/01/20 11:35:18;;;;;;;12.05;7.85;;;;;;;14.24;50.17;101458.38;5129000;27;20051;-36
2023/01/20 11:37:44;;;;;;;11.02;7.07;;;;;;;14.24;49.54;101450.38;5132265;27;20039;-35
2023/01/20 11:40:18;;;;;;;13.48;6.72;;;;;;;14.25;49.96;101449.41;5126335;27;20039;-36
2023/01/20 11:42:47;;;;;;;16.25;7.05;;;;;;;14.25;50.09;101448.56;5124290;27;20039;-35